sensor_id;sensor_type;location;lat;lon;timestamp;P1;durP1;ratioP1;P2;durP2;ratioP2
56173;SDS011;42058;52.308;20.924;2022-08-07T00:00:55;3.43;;;1.60;;
56173;SDS011;42058;52.308;20.924;2022-08-07T00:03:21;6.83;;;1.27;;
56173;SDS011;42058;52.308;20.924;2022-08-07T00:05:49;3.30;;;1.27;;
56173;SDS011;42058;52.308;20.924;2022-08-07T00:08:17;4.67;;;1.20;;
56173;SDS011;42058;52.308;20.924;2022-08-07T00:10:45;3.57;;;1.00;;
56173;SDS011;42058;52.308;20.924;2022-08-07T00:13:11;3.97;;;1.20;;
56173;SDS011;42058;52.308;20.924;2022-08-07T00:15:37;5.93;;;1.27;;
56173;SDS011;42058;52.308;20.924;2022-08-07T00:18:03;3.20;;;1.27;;
56173;SDS011;42058;52.308;20.924;2022-08-07T00:20:29;3.10;;;1.40;;
56173;SDS011;42058;52.308;20.924;2022-08-07T00:22:55;3.43;;;1.40;;
56173;SDS011;42058;52.308;20.924;2022-08-07T00:25:21;1.63;;;0.90;;
56173;SDS011;42058;52.308;20.924;2022-08-07T00:27:49;6.27;;;1.30;;
56173;SDS011;42058;52.308;20.924;2022-08-07T00:30:16;3.37;;;1.03;;
56173;SDS011;42058;52.308;20.924;2022-08-07T00:32:48;2.03;;;1.20;;
56173;SDS011;42058;52.308;20.924;2022-08-07T00:35:13;4.50;;;1.20;;
56173;SDS011;42058;52.308;20.924;2022-08-07T00:37:40;3.47;;;1.27;;
56173;SDS011;42058;52.308;20.924;2022-08-07T00:40:07;2.57;;;1.30;;
56173;SDS011;42058;52.308;20.924;2022-08-07T00:42:34;3.83;;;1.40;;
56173;SDS011;42058;52.308;20.924;2022-08-07T00:45:00;2.87;;;1.30;;
56173;SDS011;42058;52.308;20.924;2022-08-07T00:47:27;2.80;;;1.20;;
56173;SDS011;42058;52.308;20.924;2022-08-07T00:49:53;4.23;;;1.23;;
56173;SDS011;42058;52.308;20.924;2022-08-07T00:52:19;2.97;;;1.10;;
56173;SDS011;42058;52.308;20.924;2022-08-07T00:54:46;3.70;;;1.23;;
56173;SDS011;42058;52.308;20.924;2022-08-07T00:57:15;3.77;;;1.40;;
56173;SDS011;42058;52.308;20.924;2022-08-07T00:59:42;4.73;;;1.23;;
56173;SDS011;42058;52.308;20.924;2022-08-07T01:02:09;6.67;;;1.17;;
56173;SDS011;42058;52.308;20.924;2022-08-07T01:04:36;3.30;;;1.10;;
56173;SDS011;42058;52.308;20.924;2022-08-07T01:07:04;2.23;;;1.20;;
56173;SDS011;42058;52.308;20.924;2022-08-07T01:09:31;1.73;;;1.17;;
56173;SDS011;42058;52.308;20.924;2022-08-07T01:11:57;2.03;;;1.13;;
56173;SDS011;42058;52.308;20.924;2022-08-07T01:14:25;2.27;;;1.20;;
56173;SDS011;42058;52.308;20.924;2022-08-07T01:16:52;5.97;;;1.50;;
56173;SDS011;42058;52.308;20.924;2022-08-07T01:19:20;2.80;;;1.00;;
56173;SDS011;42058;52.308;20.924;2022-08-07T01:21:50;2.00;;;1.27;;
56173;SDS011;42058;52.308;20.924;2022-08-07T01:24:17;5.43;;;1.60;;
56173;SDS011;42058;52.308;20.924;2022-08-07T01:26:44;3.47;;;1.30;;
56173;SDS011;42058;52.308;20.924;2022-08-07T01:29:12;2.80;;;1.30;;
56173;SDS011;42058;52.308;20.924;2022-08-07T01:31:39;4.50;;;1.07;;
56173;SDS011;42058;52.308;20.924;2022-08-07T01:34:06;3.53;;;1.03;;
56173;SDS011;42058;52.308;20.924;2022-08-07T01:36:34;2.50;;;1.10;;
56173;SDS011;42058;52.308;20.924;2022-08-07T01:39:02;3.33;;;1.43;;
56173;SDS011;42058;52.308;20.924;2022-08-07T01:41:29;3.37;;;1.30;;
56173;SDS011;42058;52.308;20.924;2022-08-07T01:43:57;5.23;;;1.10;;
56173;SDS011;42058;52.308;20.924;2022-08-07T01:46:24;1.43;;;0.97;;
56173;SDS011;42058;52.308;20.924;2022-08-07T01:48:51;4.37;;;1.30;;
56173;SDS011;42058;52.308;20.924;2022-08-07T01:51:23;2.00;;;1.30;;
56173;SDS011;42058;52.308;20.924;2022-08-07T01:53:51;3.40;;;1.17;;
56173;SDS011;42058;52.308;20.924;2022-08-07T01:56:30;1.15;;;1.05;;
56173;SDS011;42058;52.308;20.924;2022-08-07T01:59:07;2.40;;;1.10;;
56173;SDS011;42058;52.308;20.924;2022-08-07T02:01:44;1.20;;;1.10;;
56173;SDS011;42058;52.308;20.924;2022-08-07T02:04:15;4.70;;;1.30;;
56173;SDS011;42058;52.308;20.924;2022-08-07T02:06:49;2.27;;;1.30;;
56173;SDS011;42058;52.308;20.924;2022-08-07T02:09:17;2.30;;;1.20;;
56173;SDS011;42058;52.308;20.924;2022-08-07T02:11:46;1.37;;;1.20;;
56173;SDS011;42058;52.308;20.924;2022-08-07T02:14:15;5.07;;;1.33;;
56173;SDS011;42058;52.308;20.924;2022-08-07T02:16:44;2.17;;;1.07;;
56173;SDS011;42058;52.308;20.924;2022-08-07T02:19:12;5.37;;;1.17;;
56173;SDS011;42058;52.308;20.924;2022-08-07T02:21:41;4.10;;;1.20;;
56173;SDS011;42058;52.308;20.924;2022-08-07T02:24:09;7.93;;;1.20;;
56173;SDS011;42058;52.308;20.924;2022-08-07T02:26:37;2.03;;;1.37;;
56173;SDS011;42058;52.308;20.924;2022-08-07T02:29:05;3.27;;;1.20;;
56173;SDS011;42058;52.308;20.924;2022-08-07T02:31:35;3.63;;;1.50;;
56173;SDS011;42058;52.308;20.924;2022-08-07T02:34:03;4.83;;;1.20;;
56173;SDS011;42058;52.308;20.924;2022-08-07T02:36:32;1.90;;;0.90;;
56173;SDS011;42058;52.308;20.924;2022-08-07T02:39:02;1.87;;;1.37;;
56173;SDS011;42058;52.308;20.924;2022-08-07T02:41:29;2.17;;;1.20;;
56173;SDS011;42058;52.308;20.924;2022-08-07T02:43:56;1.80;;;1.10;;
56173;SDS011;42058;52.308;20.924;2022-08-07T02:46:26;5.90;;;1.07;;
56173;SDS011;42058;52.308;20.924;2022-08-07T02:48:56;2.33;;;1.20;;
56173;SDS011;42058;52.308;20.924;2022-08-07T02:51:23;2.53;;;1.10;;
56173;SDS011;42058;52.308;20.924;2022-08-07T02:53:52;4.00;;;1.20;;
56173;SDS011;42058;52.308;20.924;2022-08-07T02:56:20;4.03;;;1.00;;
56173;SDS011;42058;52.308;20.924;2022-08-07T02:58:50;1.73;;;1.20;;
56173;SDS011;42058;52.308;20.924;2022-08-07T03:01:18;2.57;;;1.20;;
56173;SDS011;42058;52.308;20.924;2022-08-07T03:03:47;5.33;;;1.10;;
56173;SDS011;42058;52.308;20.924;2022-08-07T03:06:18;9.13;;;1.20;;
56173;SDS011;42058;52.308;20.924;2022-08-07T03:08:46;3.80;;;1.20;;
56173;SDS011;42058;52.308;20.924;2022-08-07T03:11:14;3.53;;;1.23;;
56173;SDS011;42058;52.308;20.924;2022-08-07T03:13:42;2.40;;;1.13;;
56173;SDS011;42058;52.308;20.924;2022-08-07T03:16:09;1.90;;;1.30;;
56173;SDS011;42058;52.308;20.924;2022-08-07T03:18:36;3.83;;;1.37;;
56173;SDS011;42058;52.308;20.924;2022-08-07T03:21:04;5.13;;;1.30;;
56173;SDS011;42058;52.308;20.924;2022-08-07T03:23:31;3.53;;;1.20;;
56173;SDS011;42058;52.308;20.924;2022-08-07T03:25:59;4.30;;;1.20;;
56173;SDS011;42058;52.308;20.924;2022-08-07T03:28:30;4.03;;;1.30;;
56173;SDS011;42058;52.308;20.924;2022-08-07T03:30:57;1.97;;;1.20;;
56173;SDS011;42058;52.308;20.924;2022-08-07T03:33:43;3.17;;;1.50;;
56173;SDS011;42058;52.308;20.924;2022-08-07T03:36:15;3.67;;;1.30;;
56173;SDS011;42058;52.308;20.924;2022-08-07T03:38:43;1.40;;;1.20;;
56173;SDS011;42058;52.308;20.924;2022-08-07T03:41:11;1.80;;;1.43;;
56173;SDS011;42058;52.308;20.924;2022-08-07T03:43:39;1.77;;;1.20;;
56173;SDS011;42058;52.308;20.924;2022-08-07T03:46:07;1.67;;;1.37;;
56173;SDS011;42058;52.308;20.924;2022-08-07T03:48:34;3.83;;;1.50;;
56173;SDS011;42058;52.308;20.924;2022-08-07T03:51:01;3.50;;;1.27;;
56173;SDS011;42058;52.308;20.924;2022-08-07T03:53:31;1.90;;;1.43;;
56173;SDS011;42058;52.308;20.924;2022-08-07T03:55:57;6.17;;;1.40;;
56173;SDS011;42058;52.308;20.924;2022-08-07T03:58:25;8.97;;;1.40;;
56173;SDS011;42058;52.308;20.924;2022-08-07T04:00:53;2.00;;;1.20;;
56173;SDS011;42058;52.308;20.924;2022-08-07T04:03:24;1.77;;;1.00;;
56173;SDS011;42058;52.308;20.924;2022-08-07T04:05:50;2.43;;;1.20;;
56173;SDS011;42058;52.308;20.924;2022-08-07T04:08:18;4.00;;;1.20;;
56173;SDS011;42058;52.308;20.924;2022-08-07T04:10:46;1.40;;;1.30;;
56173;SDS011;42058;52.308;20.924;2022-08-07T04:13:14;2.40;;;1.20;;
56173;SDS011;42058;52.308;20.924;2022-08-07T04:15:41;3.20;;;1.50;;
56173;SDS011;42058;52.308;20.924;2022-08-07T04:18:12;1.63;;;1.40;;
56173;SDS011;42058;52.308;20.924;2022-08-07T04:20:39;1.77;;;1.30;;
56173;SDS011;42058;52.308;20.924;2022-08-07T04:23:08;2.00;;;1.20;;
56173;SDS011;42058;52.308;20.924;2022-08-07T04:25:36;4.27;;;1.57;;
56173;SDS011;42058;52.308;20.924;2022-08-07T04:28:05;2.27;;;1.40;;
56173;SDS011;42058;52.308;20.924;2022-08-07T04:30:33;4.83;;;1.60;;
56173;SDS011;42058;52.308;20.924;2022-08-07T04:33:06;6.20;;;1.77;;
56173;SDS011;42058;52.308;20.924;2022-08-07T04:35:35;2.03;;;1.43;;
56173;SDS011;42058;52.308;20.924;2022-08-07T04:38:07;3.63;;;1.50;;
56173;SDS011;42058;52.308;20.924;2022-08-07T04:40:39;3.83;;;1.60;;
56173;SDS011;42058;52.308;20.924;2022-08-07T04:43:08;3.50;;;1.55;;
56173;SDS011;42058;52.308;20.924;2022-08-07T04:45:42;2.77;;;1.43;;
56173;SDS011;42058;52.308;20.924;2022-08-07T04:51:09;5.07;;;1.70;;
56173;SDS011;42058;52.308;20.924;2022-08-07T04:56:50;2.80;;;1.40;;
56173;SDS011;42058;52.308;20.924;2022-08-07T05:05:02;2.67;;;1.30;;
56173;SDS011;42058;52.308;20.924;2022-08-07T05:07:54;6.95;;;1.65;;
56173;SDS011;42058;52.308;20.924;2022-08-07T05:10:38;3.47;;;1.50;;
56173;SDS011;42058;52.308;20.924;2022-08-07T05:15:48;5.03;;;1.60;;
56173;SDS011;42058;52.308;20.924;2022-08-07T05:18:21;2.53;;;1.20;;
56173;SDS011;42058;52.308;20.924;2022-08-07T05:20:55;4.80;;;1.60;;
56173;SDS011;42058;52.308;20.924;2022-08-07T05:23:32;3.07;;;1.23;;
56173;SDS011;42058;52.308;20.924;2022-08-07T05:26:19;3.93;;;1.40;;
56173;SDS011;42058;52.308;20.924;2022-08-07T05:28:50;3.20;;;1.57;;
56173;SDS011;42058;52.308;20.924;2022-08-07T05:31:23;2.57;;;1.47;;
56173;SDS011;42058;52.308;20.924;2022-08-07T05:33:59;5.00;;;1.77;;
56173;SDS011;42058;52.308;20.924;2022-08-07T05:36:28;7.17;;;1.47;;
56173;SDS011;42058;52.308;20.924;2022-08-07T05:38:56;5.43;;;1.40;;
56173;SDS011;42058;52.308;20.924;2022-08-07T05:41:22;2.73;;;1.20;;
56173;SDS011;42058;52.308;20.924;2022-08-07T05:43:52;2.90;;;1.30;;
56173;SDS011;42058;52.308;20.924;2022-08-07T05:46:21;2.20;;;1.40;;
56173;SDS011;42058;52.308;20.924;2022-08-07T05:48:49;3.80;;;1.30;;
56173;SDS011;42058;52.308;20.924;2022-08-07T05:51:17;5.77;;;1.20;;
56173;SDS011;42058;52.308;20.924;2022-08-07T05:53:44;4.87;;;1.27;;
56173;SDS011;42058;52.308;20.924;2022-08-07T05:56:12;2.23;;;0.90;;
56173;SDS011;42058;52.308;20.924;2022-08-07T05:58:42;3.37;;;0.80;;
56173;SDS011;42058;52.308;20.924;2022-08-07T06:01:12;6.10;;;1.30;;
56173;SDS011;42058;52.308;20.924;2022-08-07T06:03:53;2.20;;;0.90;;
56173;SDS011;42058;52.308;20.924;2022-08-07T06:06:19;2.73;;;0.90;;
56173;SDS011;42058;52.308;20.924;2022-08-07T06:08:47;2.83;;;1.17;;
56173;SDS011;42058;52.308;20.924;2022-08-07T06:11:14;3.47;;;1.00;;
56173;SDS011;42058;52.308;20.924;2022-08-07T06:13:41;2.17;;;1.00;;
56173;SDS011;42058;52.308;20.924;2022-08-07T06:16:08;5.00;;;1.20;;
56173;SDS011;42058;52.308;20.924;2022-08-07T06:18:35;1.60;;;1.00;;
56173;SDS011;42058;52.308;20.924;2022-08-07T06:21:03;1.90;;;1.10;;
56173;SDS011;42058;52.308;20.924;2022-08-07T06:23:31;4.60;;;1.10;;
56173;SDS011;42058;52.308;20.924;2022-08-07T06:25:58;2.97;;;0.93;;
56173;SDS011;42058;52.308;20.924;2022-08-07T06:28:26;2.80;;;1.00;;
56173;SDS011;42058;52.308;20.924;2022-08-07T06:30:53;0.83;;;0.80;;
56173;SDS011;42058;52.308;20.924;2022-08-07T06:33:20;3.27;;;0.90;;
56173;SDS011;42058;52.308;20.924;2022-08-07T06:35:48;1.63;;;0.90;;
56173;SDS011;42058;52.308;20.924;2022-08-07T06:38:14;2.70;;;0.90;;
56173;SDS011;42058;52.308;20.924;2022-08-07T06:40:42;6.17;;;1.20;;
56173;SDS011;42058;52.308;20.924;2022-08-07T06:43:12;2.97;;;0.80;;
56173;SDS011;42058;52.308;20.924;2022-08-07T06:45:59;2.23;;;0.60;;
56173;SDS011;42058;52.308;20.924;2022-08-07T06:48:25;2.73;;;0.67;;
56173;SDS011;42058;52.308;20.924;2022-08-07T06:50:52;6.00;;;0.70;;
56173;SDS011;42058;52.308;20.924;2022-08-07T06:53:22;3.30;;;1.43;;
56173;SDS011;42058;52.308;20.924;2022-08-07T06:55:52;4.80;;;0.77;;
56173;SDS011;42058;52.308;20.924;2022-08-07T06:58:20;3.57;;;0.90;;
56173;SDS011;42058;52.308;20.924;2022-08-07T07:00:50;4.73;;;0.80;;
56173;SDS011;42058;52.308;20.924;2022-08-07T07:03:17;2.43;;;0.67;;
56173;SDS011;42058;52.308;20.924;2022-08-07T07:05:44;1.90;;;0.80;;
56173;SDS011;42058;52.308;20.924;2022-08-07T07:08:11;3.67;;;0.83;;
56173;SDS011;42058;52.308;20.924;2022-08-07T07:10:37;3.27;;;0.90;;
56173;SDS011;42058;52.308;20.924;2022-08-07T07:13:08;2.67;;;0.80;;
56173;SDS011;42058;52.308;20.924;2022-08-07T07:15:40;2.03;;;0.90;;
56173;SDS011;42058;52.308;20.924;2022-08-07T07:20:46;1.00;;;0.63;;
56173;SDS011;42058;52.308;20.924;2022-08-07T07:23:22;3.97;;;0.90;;
56173;SDS011;42058;52.308;20.924;2022-08-07T07:25:50;3.60;;;0.77;;
56173;SDS011;42058;52.308;20.924;2022-08-07T07:28:20;3.87;;;0.60;;
56173;SDS011;42058;52.308;20.924;2022-08-07T07:30:55;0.70;;;0.70;;
56173;SDS011;42058;52.308;20.924;2022-08-07T07:33:27;2.23;;;0.77;;
56173;SDS011;42058;52.308;20.924;2022-08-07T07:35:57;1.10;;;0.53;;
56173;SDS011;42058;52.308;20.924;2022-08-07T07:38:27;1.10;;;0.60;;
56173;SDS011;42058;52.308;20.924;2022-08-07T07:40:56;1.77;;;0.73;;
56173;SDS011;42058;52.308;20.924;2022-08-07T07:43:26;2.63;;;0.90;;
56173;SDS011;42058;52.308;20.924;2022-08-07T07:45:55;3.17;;;0.73;;
56173;SDS011;42058;52.308;20.924;2022-08-07T07:48:22;4.73;;;0.80;;
56173;SDS011;42058;52.308;20.924;2022-08-07T07:50:50;3.10;;;0.80;;
56173;SDS011;42058;52.308;20.924;2022-08-07T07:53:19;1.80;;;0.90;;
56173;SDS011;42058;52.308;20.924;2022-08-07T07:55:53;2.00;;;0.80;;
56173;SDS011;42058;52.308;20.924;2022-08-07T07:58:28;2.20;;;0.60;;
56173;SDS011;42058;52.308;20.924;2022-08-07T08:00:54;2.67;;;0.80;;
56173;SDS011;42058;52.308;20.924;2022-08-07T08:03:23;2.53;;;0.87;;
56173;SDS011;42058;52.308;20.924;2022-08-07T08:05:49;5.37;;;1.10;;
56173;SDS011;42058;52.308;20.924;2022-08-07T08:08:17;1.93;;;0.70;;
56173;SDS011;42058;52.308;20.924;2022-08-07T08:10:44;1.30;;;0.83;;
56173;SDS011;42058;52.308;20.924;2022-08-07T08:13:11;1.23;;;0.60;;
56173;SDS011;42058;52.308;20.924;2022-08-07T08:15:39;2.43;;;0.87;;
56173;SDS011;42058;52.308;20.924;2022-08-07T08:18:08;1.17;;;0.60;;
56173;SDS011;42058;52.308;20.924;2022-08-07T08:20:38;4.13;;;0.90;;
56173;SDS011;42058;52.308;20.924;2022-08-07T08:23:06;1.80;;;0.70;;
56173;SDS011;42058;52.308;20.924;2022-08-07T08:25:51;1.83;;;0.70;;
56173;SDS011;42058;52.308;20.924;2022-08-07T08:28:37;2.40;;;0.60;;
56173;SDS011;42058;52.308;20.924;2022-08-07T08:31:08;2.20;;;0.80;;
56173;SDS011;42058;52.308;20.924;2022-08-07T08:33:37;2.73;;;0.73;;
56173;SDS011;42058;52.308;20.924;2022-08-07T08:36:06;1.70;;;0.60;;
56173;SDS011;42058;52.308;20.924;2022-08-07T08:38:36;1.60;;;0.73;;
56173;SDS011;42058;52.308;20.924;2022-08-07T08:41:13;1.20;;;0.60;;
56173;SDS011;42058;52.308;20.924;2022-08-07T08:44:16;1.95;;;0.70;;
56173;SDS011;42058;52.308;20.924;2022-08-07T08:46:54;2.87;;;0.77;;
56173;SDS011;42058;52.308;20.924;2022-08-07T08:49:48;1.73;;;0.70;;
56173;SDS011;42058;52.308;20.924;2022-08-07T08:52:46;3.50;;;0.60;;
56173;SDS011;42058;52.308;20.924;2022-08-07T08:55:18;0.70;;;0.50;;
56173;SDS011;42058;52.308;20.924;2022-08-07T08:58:05;1.20;;;0.60;;
56173;SDS011;42058;52.308;20.924;2022-08-07T09:00:43;1.60;;;0.70;;
56173;SDS011;42058;52.308;20.924;2022-08-07T09:03:24;0.87;;;0.67;;
56173;SDS011;42058;52.308;20.924;2022-08-07T09:06:17;3.03;;;0.87;;
56173;SDS011;42058;52.308;20.924;2022-08-07T09:09:11;0.97;;;0.60;;
56173;SDS011;42058;52.308;20.924;2022-08-07T09:11:49;3.63;;;0.80;;
56173;SDS011;42058;52.308;20.924;2022-08-07T09:14:23;1.00;;;0.60;;
56173;SDS011;42058;52.308;20.924;2022-08-07T09:19:40;1.27;;;0.50;;
56173;SDS011;42058;52.308;20.924;2022-08-07T09:25:46;1.67;;;0.80;;
56173;SDS011;42058;52.308;20.924;2022-08-07T09:28:38;2.17;;;0.83;;
56173;SDS011;42058;52.308;20.924;2022-08-07T09:31:12;0.50;;;0.50;;
56173;SDS011;42058;52.308;20.924;2022-08-07T09:34:07;1.97;;;0.60;;
56173;SDS011;42058;52.308;20.924;2022-08-07T09:36:59;1.27;;;0.53;;
56173;SDS011;42058;52.308;20.924;2022-08-07T09:39:45;1.27;;;0.60;;
56173;SDS011;42058;52.308;20.924;2022-08-07T09:45:17;1.30;;;0.47;;
56173;SDS011;42058;52.308;20.924;2022-08-07T09:48:14;1.80;;;0.70;;
56173;SDS011;42058;52.308;20.924;2022-08-07T09:50:59;0.78;;;0.50;;
56173;SDS011;42058;52.308;20.924;2022-08-07T09:53:39;1.73;;;0.70;;
56173;SDS011;42058;52.308;20.924;2022-08-07T09:59:31;0.78;;;0.50;;
56173;SDS011;42058;52.308;20.924;2022-08-07T10:02:10;0.60;;;0.50;;
56173;SDS011;42058;52.308;20.924;2022-08-07T10:07:58;1.70;;;0.53;;
56173;SDS011;42058;52.308;20.924;2022-08-07T10:14:33;1.33;;;0.40;;
56173;SDS011;42058;52.308;20.924;2022-08-07T10:32:21;0.50;;;0.43;;
56173;SDS011;42058;52.308;20.924;2022-08-07T10:44:12;1.60;;;0.50;;
56173;SDS011;42058;52.308;20.924;2022-08-07T10:49:34;0.90;;;0.50;;
56173;SDS011;42058;52.308;20.924;2022-08-07T10:52:13;1.37;;;0.40;;
56173;SDS011;42058;52.308;20.924;2022-08-07T10:55:06;1.17;;;0.63;;
56173;SDS011;42058;52.308;20.924;2022-08-07T10:58:14;0.77;;;0.47;;
56173;SDS011;42058;52.308;20.924;2022-08-07T11:10:00;1.87;;;0.63;;
56173;SDS011;42058;52.308;20.924;2022-08-07T11:12:33;0.50;;;0.50;;
56173;SDS011;42058;52.308;20.924;2022-08-07T11:15:07;0.57;;;0.50;;
56173;SDS011;42058;52.308;20.924;2022-08-07T11:20:25;1.10;;;0.50;;
56173;SDS011;42058;52.308;20.924;2022-08-07T11:22:54;2.23;;;0.70;;
56173;SDS011;42058;52.308;20.924;2022-08-07T11:25:55;1.00;;;0.43;;
56173;SDS011;42058;52.308;20.924;2022-08-07T11:28:41;1.00;;;0.60;;
56173;SDS011;42058;52.308;20.924;2022-08-07T11:31:25;0.70;;;0.40;;
56173;SDS011;42058;52.308;20.924;2022-08-07T11:34:03;1.77;;;0.50;;
56173;SDS011;42058;52.308;20.924;2022-08-07T11:42:24;0.47;;;0.47;;
56173;SDS011;42058;52.308;20.924;2022-08-07T11:51:16;2.20;;;0.80;;
56173;SDS011;42058;52.308;20.924;2022-08-07T12:00:19;1.80;;;0.60;;
56173;SDS011;42058;52.308;20.924;2022-08-07T12:03:22;0.70;;;0.50;;
56173;SDS011;42058;52.308;20.924;2022-08-07T12:06:19;0.73;;;0.40;;
56173;SDS011;42058;52.308;20.924;2022-08-07T12:08:49;0.67;;;0.57;;
56173;SDS011;42058;52.308;20.924;2022-08-07T12:11:22;1.70;;;0.77;;
56173;SDS011;42058;52.308;20.924;2022-08-07T12:13:55;2.00;;;0.60;;
56173;SDS011;42058;52.308;20.924;2022-08-07T12:16:26;1.05;;;0.53;;
56173;SDS011;42058;52.308;20.924;2022-08-07T12:21:50;4.03;;;0.77;;
56173;SDS011;42058;52.308;20.924;2022-08-07T12:27:38;1.77;;;0.80;;
56173;SDS011;42058;52.308;20.924;2022-08-07T12:30:09;3.27;;;0.90;;
56173;SDS011;42058;52.308;20.924;2022-08-07T12:32:44;0.87;;;0.53;;
56173;SDS011;42058;52.308;20.924;2022-08-07T12:35:12;2.07;;;0.60;;
56173;SDS011;42058;52.308;20.924;2022-08-07T12:37:40;1.83;;;0.70;;
56173;SDS011;42058;52.308;20.924;2022-08-07T12:40:11;0.80;;;0.60;;
56173;SDS011;42058;52.308;20.924;2022-08-07T12:42:50;0.40;;;0.40;;
56173;SDS011;42058;52.308;20.924;2022-08-07T12:45:22;1.60;;;0.53;;
56173;SDS011;42058;52.308;20.924;2022-08-07T12:48:33;0.60;;;0.60;;
56173;SDS011;42058;52.308;20.924;2022-08-07T12:51:11;0.60;;;0.60;;
56173;SDS011;42058;52.308;20.924;2022-08-07T12:53:44;0.60;;;0.60;;
56173;SDS011;42058;52.308;20.924;2022-08-07T12:56:34;3.73;;;0.70;;
56173;SDS011;42058;52.308;20.924;2022-08-07T12:59:04;1.43;;;0.57;;
56173;SDS011;42058;52.308;20.924;2022-08-07T13:01:41;1.37;;;0.70;;
56173;SDS011;42058;52.308;20.924;2022-08-07T13:10:37;1.33;;;0.70;;
56173;SDS011;42058;52.308;20.924;2022-08-07T13:13:26;0.90;;;0.70;;
56173;SDS011;42058;52.308;20.924;2022-08-07T13:19:22;1.23;;;0.70;;
56173;SDS011;42058;52.308;20.924;2022-08-07T13:22:13;1.20;;;0.60;;
56173;SDS011;42058;52.308;20.924;2022-08-07T13:24:49;1.98;;;0.70;;
56173;SDS011;42058;52.308;20.924;2022-08-07T13:27:24;1.90;;;0.50;;
56173;SDS011;42058;52.308;20.924;2022-08-07T13:30:03;0.60;;;0.50;;
56173;SDS011;42058;52.308;20.924;2022-08-07T13:32:40;2.40;;;0.70;;
56173;SDS011;42058;52.308;20.924;2022-08-07T13:38:15;1.33;;;0.60;;
56173;SDS011;42058;52.308;20.924;2022-08-07T13:44:02;1.20;;;0.60;;
56173;SDS011;42058;52.308;20.924;2022-08-07T13:46:32;1.10;;;0.70;;
56173;SDS011;42058;52.308;20.924;2022-08-07T13:49:02;1.03;;;0.70;;
56173;SDS011;42058;52.308;20.924;2022-08-07T13:51:31;0.77;;;0.50;;
56173;SDS011;42058;52.308;20.924;2022-08-07T13:54:02;3.60;;;0.87;;
56173;SDS011;42058;52.308;20.924;2022-08-07T13:56:33;1.40;;;0.63;;
56173;SDS011;42058;52.308;20.924;2022-08-07T13:59:02;1.00;;;0.70;;
56173;SDS011;42058;52.308;20.924;2022-08-07T14:01:57;0.77;;;0.53;;
56173;SDS011;42058;52.308;20.924;2022-08-07T14:04:27;1.75;;;0.62;;
56173;SDS011;42058;52.308;20.924;2022-08-07T14:06:55;1.90;;;0.70;;
56173;SDS011;42058;52.308;20.924;2022-08-07T14:09:23;1.00;;;0.70;;
56173;SDS011;42058;52.308;20.924;2022-08-07T14:11:55;1.27;;;0.60;;
56173;SDS011;42058;52.308;20.924;2022-08-07T14:14:25;0.93;;;0.70;;
56173;SDS011;42058;52.308;20.924;2022-08-07T14:16:55;1.03;;;0.53;;
56173;SDS011;42058;52.308;20.924;2022-08-07T14:19:33;1.87;;;0.60;;
56173;SDS011;42058;52.308;20.924;2022-08-07T14:22:25;3.03;;;0.73;;
56173;SDS011;42058;52.308;20.924;2022-08-07T14:25:06;2.83;;;0.60;;
56173;SDS011;42058;52.308;20.924;2022-08-07T14:27:35;1.70;;;0.63;;
56173;SDS011;42058;52.308;20.924;2022-08-07T14:30:05;0.50;;;0.47;;
56173;SDS011;42058;52.308;20.924;2022-08-07T14:32:43;2.27;;;0.50;;
56173;SDS011;42058;52.308;20.924;2022-08-07T14:35:18;4.47;;;0.87;;
56173;SDS011;42058;52.308;20.924;2022-08-07T14:37:48;2.33;;;0.90;;
56173;SDS011;42058;52.308;20.924;2022-08-07T14:40:19;1.90;;;0.67;;
56173;SDS011;42058;52.308;20.924;2022-08-07T14:45:56;2.50;;;0.90;;
56173;SDS011;42058;52.308;20.924;2022-08-07T14:48:08;0.53;;;0.50;;
56173;SDS011;42058;52.308;20.924;2022-08-07T14:50:42;3.03;;;0.83;;
56173;SDS011;42058;52.308;20.924;2022-08-07T14:53:18;1.60;;;0.80;;
56173;SDS011;42058;52.308;20.924;2022-08-07T14:55:47;1.60;;;0.73;;
56173;SDS011;42058;52.308;20.924;2022-08-07T14:58:15;1.43;;;1.00;;
56173;SDS011;42058;52.308;20.924;2022-08-07T15:00:43;1.97;;;0.70;;
56173;SDS011;42058;52.308;20.924;2022-08-07T15:03:16;0.80;;;0.80;;
56173;SDS011;42058;52.308;20.924;2022-08-07T15:05:50;2.23;;;1.37;;
56173;SDS011;42058;52.308;20.924;2022-08-07T15:08:26;3.77;;;1.70;;
56173;SDS011;42058;52.308;20.924;2022-08-07T15:10:56;3.40;;;2.23;;
56173;SDS011;42058;52.308;20.924;2022-08-07T15:13:27;4.00;;;1.50;;
56173;SDS011;42058;52.308;20.924;2022-08-07T15:16:05;1.97;;;1.63;;
56173;SDS011;42058;52.308;20.924;2022-08-07T15:21:18;2.33;;;1.40;;
56173;SDS011;42058;52.308;20.924;2022-08-07T15:23:55;1.73;;;0.80;;
56173;SDS011;42058;52.308;20.924;2022-08-07T15:26:32;2.30;;;0.80;;
56173;SDS011;42058;52.308;20.924;2022-08-07T15:29:05;3.03;;;1.33;;
56173;SDS011;42058;52.308;20.924;2022-08-07T15:31:35;5.27;;;1.00;;
56173;SDS011;42058;52.308;20.924;2022-08-07T15:34:04;0.90;;;0.60;;
56173;SDS011;42058;52.308;20.924;2022-08-07T15:36:34;2.40;;;0.80;;
56173;SDS011;42058;52.308;20.924;2022-08-07T15:39:02;0.60;;;0.60;;
56173;SDS011;42058;52.308;20.924;2022-08-07T15:41:31;2.57;;;0.80;;
56173;SDS011;42058;52.308;20.924;2022-08-07T15:44:02;2.77;;;0.60;;
56173;SDS011;42058;52.308;20.924;2022-08-07T15:46:32;0.83;;;0.70;;
56173;SDS011;42058;52.308;20.924;2022-08-07T15:49:01;1.07;;;0.60;;
56173;SDS011;42058;52.308;20.924;2022-08-07T15:51:30;0.93;;;0.63;;
56173;SDS011;42058;52.308;20.924;2022-08-07T15:53:59;2.00;;;0.70;;
56173;SDS011;42058;52.308;20.924;2022-08-07T15:56:48;4.43;;;0.60;;
56173;SDS011;42058;52.308;20.924;2022-08-07T15:59:15;0.60;;;0.50;;
56173;SDS011;42058;52.308;20.924;2022-08-07T16:01:46;2.77;;;0.97;;
56173;SDS011;42058;52.308;20.924;2022-08-07T16:04:16;1.37;;;0.90;;
56173;SDS011;42058;52.308;20.924;2022-08-07T16:06:49;2.87;;;0.73;;
56173;SDS011;42058;52.308;20.924;2022-08-07T16:09:22;3.40;;;0.90;;
56173;SDS011;42058;52.308;20.924;2022-08-07T16:14:57;2.33;;;0.80;;
56173;SDS011;42058;52.308;20.924;2022-08-07T16:20:44;0.90;;;0.80;;
56173;SDS011;42058;52.308;20.924;2022-08-07T16:23:31;1.73;;;0.80;;
56173;SDS011;42058;52.308;20.924;2022-08-07T16:26:27;1.57;;;0.97;;
56173;SDS011;42058;52.308;20.924;2022-08-07T16:32:10;3.23;;;1.07;;
56173;SDS011;42058;52.308;20.924;2022-08-07T16:34:42;1.43;;;1.00;;
56173;SDS011;42058;52.308;20.924;2022-08-07T16:37:21;1.50;;;1.40;;
56173;SDS011;42058;52.308;20.924;2022-08-07T16:43:37;1.37;;;0.70;;
56173;SDS011;42058;52.308;20.924;2022-08-07T16:46:32;1.27;;;0.70;;
56173;SDS011;42058;52.308;20.924;2022-08-07T16:52:08;3.10;;;0.90;;
56173;SDS011;42058;52.308;20.924;2022-08-07T16:57:52;1.33;;;0.90;;
56173;SDS011;42058;52.308;20.924;2022-08-07T17:00:19;0.60;;;0.60;;
56173;SDS011;42058;52.308;20.924;2022-08-07T17:08:53;2.10;;;0.80;;
56173;SDS011;42058;52.308;20.924;2022-08-07T17:14:28;2.90;;;0.83;;
56173;SDS011;42058;52.308;20.924;2022-08-07T17:17:01;2.60;;;0.97;;
56173;SDS011;42058;52.308;20.924;2022-08-07T17:19:36;2.10;;;0.83;;
56173;SDS011;42058;52.308;20.924;2022-08-07T17:22:15;2.30;;;0.97;;
56173;SDS011;42058;52.308;20.924;2022-08-07T17:24:48;1.53;;;0.90;;
56173;SDS011;42058;52.308;20.924;2022-08-07T17:30:23;2.08;;;0.80;;
56173;SDS011;42058;52.308;20.924;2022-08-07T17:33:16;1.13;;;0.80;;
56173;SDS011;42058;52.308;20.924;2022-08-07T17:38:37;2.83;;;1.00;;
56173;SDS011;42058;52.308;20.924;2022-08-07T17:44:20;4.03;;;0.90;;